Tuesday, April 21, 2015, 4:12 AM EDT

KDYL, Doylestown Airport

Location: Doylestown, PA, United States Lat: 40.333
Local Time: 4:12 AM EDT ( 8:12 GMT) Lon: -75.117
Time Zone: US/Eastern Elev: 393 ft

Show me the last for .
Show Decoded

2015-04-21 03:54 METAR KDYL 210754Z AUTO 00000KT 8SM -RA OVC070 12/12 A2958 RMK AO2 SLP014 P0011
                 T01220122 =
2015-04-21 02:54 METAR KDYL 210654Z AUTO 00000KT 10SM -RA FEW055 OVC080 13/13 A2957 RMK AO2
                 SLP013 P0002 T01280128 =
2015-04-21 01:54 METAR KDYL 210554Z AUTO 32008KT 9SM -RA FEW026 SCT050 OVC080 13/13 A2958 RMK AO2
                 LTG DSNT E-S SLP014 P0006 60014 T01330128 10161 20133 53013 =
2015-04-21 01:32 METAR KDYL 210532Z AUTO 32010KT 10SM -RA SCT011 BKN090 OVC100 14/13 A2958 RMK
                 AO2 LTG DSNT SE-SW P0002 T01440133 =
2015-04-21 01:23 METAR KDYL 210523Z AUTO 30006KT 10SM -RA FEW008 BKN014 OVC110 14/13 A2958 RMK
                 AO2 LTG DSNT SE-SW P0001 T01440128 =
2015-04-21 00:54 METAR KDYL 210454Z AUTO 26003KT 10SM -RA OVC085 15/13 A2955 RMK AO2 LTG DSNT W
                 AND NW RAB0355 SLP005 P0007 T01500128 402110067 =
2015-04-20 22:54 METAR KDYL 210254Z AUTO VRB03KT 7SM FEW042 15/15 A2954 RMK AO2 SLP002 60001
                 T01500150 58015 =
2015-04-20 21:54 METAR KDYL 210154Z AUTO 00000KT 5SM BR FEW003 SCT040 BKN060 15/15 A2956 RMK AO2
                 RAE0057 SLP011 P0000 T01500150 =
2015-04-20 21:50 METAR KDYL 210150Z AUTO 00000KT 5SM BR SCT003 SCT040 BKN060 14/14 A2957 RMK AO2
                 RAE0057 P0000 =
2015-04-20 20:54 METAR KDYL 210054Z AUTO VRB03KT 6SM -RA BR OVC003 15/15 A2958 RMK AO2 LTG DSNT W
                 RAB28 SLP018 P0001 T01500150 =
2015-04-20 20:28 METAR KDYL 210028Z AUTO 00000KT 6SM -RA BR OVC002 15/15 A2958 RMK AO2 RAB28
                 P0000 T01500150 =
2015-04-20 19:54 METAR KDYL 202354Z AUTO VRB03KT 9SM OVC003 15/15 A2958 RMK AO2 SLP016 T01500150
                 10211 20150 58003 =
2015-04-20 19:05 METAR KDYL 202305Z AUTO VRB04KT 10SM BKN004 16/15 A2959 RMK AO2 T01560150 =
2015-04-20 18:54 METAR KDYL 202254Z AUTO VRB06KT 10SM BKN006 BKN055 BKN070 16/15 A2959 RMK AO2
                 SLP019 T01610150 =
2015-04-20 18:51 METAR KDYL 202251Z AUTO 05007KT 10SM SCT006 BKN055 BKN070 16/15 A2959 RMK AO2 =
2015-04-20 17:54 METAR KDYL 202154Z AUTO 04007KT 10SM FEW029 19/16 A2959 RMK AO2 SLP019 T01940156
                 =
2015-04-20 16:54 METAR KDYL 202054Z AUTO 00000KT 10SM FEW016 21/16 A2962 RMK AO2 SLP029 T02060156
                 55005 =
2015-04-20 16:50 METAR KDYL 202050Z AUTO 03004KT 10SM FEW016 20/16 A2962 RMK AO2 =
2015-04-20 15:54 METAR KDYL 201954Z AUTO 01005KT 10SM BKN015 21/16 A2960 RMK AO2 SLP022 T02060156
                 =
2015-04-20 15:13 METAR KDYL 201913Z AUTO 36004KT 10SM FEW013 SCT025 19/16 A2962 RMK AO2 T01890161
                 =
2015-04-20 14:54 METAR KDYL 201854Z AUTO 36005KT 10SM FEW006 OVC025 18/16 A2963 RMK AO2 SLP035
                 T01830161 =
2015-04-20 14:49 METAR KDYL 201849Z AUTO VRB04KT 10SM SCT006 OVC025 18/16 A2964 RMK AO2 =
2015-04-20 14:24 METAR KDYL 201824Z AUTO 00000KT 10SM OVC005 16/15 A2965 RMK AO2 CIG 004V009
                 T01610150 =
2015-04-20 13:54 METAR KDYL 201754Z AUTO 00000KT 10SM OVC004 15/14 A2966 RMK AO2 SLP044 60070
                 T01500144 10150 20094 55014 =
2015-04-20 12:54 METAR KDYL 201654Z AUTO 02006KT 10SM OVC004 14/13 A2966 RMK AO2 RAE02 SLP043
                 P0000 T01390133 =
2015-04-20 11:54 METAR KDYL 201554Z AUTO VRB03KT 4SM -RA BR OVC004 12/12 A2968 RMK AO2 RAE10B50
                 SLP053 P0000 T01170117 =
2015-04-20 11:02 METAR KDYL 201502Z AUTO 05006KT 4SM -RA BR OVC004 11/11 A2970 RMK AO2 P0000
                 T01110111 =
2015-04-20 10:54 METAR KDYL 201454Z AUTO 04006KT 2 1/2SM -RA BR BKN005 OVC010 11/11 A2970 RMK AO2
                 SLP059 P0003 60070 T01110111 56025 =
2015-04-20 10:31 METAR KDYL 201431Z AUTO 04007KT 5SM -RA BR BKN005 OVC017 11/11 A2971 RMK AO2
                 P0001 T01060106 =
2015-04-20 10:07 METAR KDYL 201407Z AUTO 04008KT 7SM -RA BKN004 BKN028 OVC037 10/10 A2971 RMK AO2
                 P0001 T01000100 =
2015-04-20 09:54 METAR KDYL 201354Z AUTO 04010G14KT 4SM -RA BR FEW004 BKN032 OVC049 10/10 A2972
                 RMK AO2 SLP064 P0019 T01000100 =
2015-04-20 09:07 METAR KDYL 201307Z AUTO 06004KT 2 1/2SM +RA BR FEW006 BKN029 OVC033 10/10 A2975
                 RMK AO2 P0007 T01000100 =
2015-04-20 08:58 METAR KDYL 201258Z AUTO VRB03KT 3SM RA BR FEW007 BKN031 OVC044 10/10 A2975 RMK
                 AO2 P0001 T01000100 =
2015-04-20 08:54 METAR KDYL 201254Z AUTO 06005KT 2 1/2SM +RA BR FEW010 BKN029 OVC041 10/10 A2975
                 RMK AO2 SLP076 P0048 T01000100 =
2015-04-20 08:37 METAR KDYL 201237Z AUTO VRB04KT 2SM RA BR SCT006 BKN025 OVC065 10/10 A2976 RMK
                 AO2 P0036 T01000100 =
2015-04-20 08:28 METAR KDYL 201228Z AUTO 08006KT 1 1/4SM +RA BKN007 OVC013 10/ A2977 RMK AO2
                 P0031 T0100 =
2015-04-20 07:34 METAR KDYL 201134Z AUTO VRB03KT 2 1/2SM RA OVC006 09/ A2979 RMK AO2 CIG 005V011
                 P0017 T0094 $ =
2015-04-20 06:54 METAR KDYL 201054Z AUTO 5SM RA OVC007 09/ A2978 RMK AO2 CIG 005V010 SLP088 P0020
                 T0094 $ =
2015-04-20 05:54 METAR KDYL 200954Z AUTO 10008KT 5SM RA OVC009 09/ A2981 RMK AO2 CIG 007V012
                 SLP095 P0011 T0089 $ =

Support USWX by starting your Amazon purchase here.